sensor_id;sensor_type;location;lat;lon;timestamp;pressure;altitude;pressure_sealevel;temperature;humidity
10202;BME280;5143;42.584;23.164;2023-04-16T00:01:15;92039.22;;;5.75;100.00
10202;BME280;5143;42.584;23.164;2023-04-16T00:03:42;92040.84;;;5.82;100.00
10202;BME280;5143;42.584;23.164;2023-04-16T00:06:09;92047.63;;;5.77;100.00
10202;BME280;5143;42.584;23.164;2023-04-16T00:08:37;92046.59;;;5.75;100.00
10202;BME280;5143;42.584;23.164;2023-04-16T00:11:06;92037.00;;;5.74;100.00
10202;BME280;5143;42.584;23.164;2023-04-16T00:13:33;92048.34;;;5.87;100.00
10202;BME280;5143;42.584;23.164;2023-04-16T00:16:00;92046.75;;;5.95;100.00
10202;BME280;5143;42.584;23.164;2023-04-16T00:18:27;92048.22;;;5.96;100.00
10202;BME280;5143;42.584;23.164;2023-04-16T00:20:54;92043.56;;;5.97;100.00
10202;BME280;5143;42.584;23.164;2023-04-16T00:23:21;92049.09;;;6.02;100.00
10202;BME280;5143;42.584;23.164;2023-04-16T00:25:49;92043.78;;;5.93;100.00
10202;BME280;5143;42.584;23.164;2023-04-16T00:28:18;92047.44;;;5.81;100.00
10202;BME280;5143;42.584;23.164;2023-04-16T00:30:45;92041.09;;;5.84;100.00
10202;BME280;5143;42.584;23.164;2023-04-16T00:33:12;92038.84;;;5.82;100.00
10202;BME280;5143;42.584;23.164;2023-04-16T00:35:39;92038.72;;;5.86;100.00
10202;BME280;5143;42.584;23.164;2023-04-16T00:38:05;92040.34;;;5.83;100.00
10202;BME280;5143;42.584;23.164;2023-04-16T00:40:32;92039.50;;;5.77;100.00
10202;BME280;5143;42.584;23.164;2023-04-16T00:42:59;92038.03;;;5.76;100.00
10202;BME280;5143;42.584;23.164;2023-04-16T00:45:27;92025.50;;;5.79;100.00
10202;BME280;5143;42.584;23.164;2023-04-16T00:47:54;92033.63;;;5.79;100.00
10202;BME280;5143;42.584;23.164;2023-04-16T00:50:22;92036.53;;;5.75;100.00
10202;BME280;5143;42.584;23.164;2023-04-16T00:52:49;92030.72;;;5.68;100.00
10202;BME280;5143;42.584;23.164;2023-04-16T00:55:17;92023.75;;;5.52;100.00
10202;BME280;5143;42.584;23.164;2023-04-16T00:57:45;92028.63;;;5.48;100.00
10202;BME280;5143;42.584;23.164;2023-04-16T01:00:13;92026.56;;;5.43;100.00
10202;BME280;5143;42.584;23.164;2023-04-16T01:02:41;92023.28;;;5.39;100.00
10202;BME280;5143;42.584;23.164;2023-04-16T01:05:08;92023.47;;;5.35;100.00
10202;BME280;5143;42.584;23.164;2023-04-16T01:07:35;92018.34;;;5.38;100.00
10202;BME280;5143;42.584;23.164;2023-04-16T01:10:03;92018.97;;;5.32;100.00
10202;BME280;5143;42.584;23.164;2023-04-16T01:12:30;92019.31;;;5.25;100.00
10202;BME280;5143;42.584;23.164;2023-04-16T01:14:57;92001.94;;;5.17;100.00
10202;BME280;5143;42.584;23.164;2023-04-16T01:17:23;92012.19;;;5.13;100.00
10202;BME280;5143;42.584;23.164;2023-04-16T01:19:52;92008.28;;;5.14;100.00
10202;BME280;5143;42.584;23.164;2023-04-16T01:22:20;92010.09;;;5.08;100.00
10202;BME280;5143;42.584;23.164;2023-04-16T01:24:47;92009.81;;;5.06;100.00
10202;BME280;5143;42.584;23.164;2023-04-16T01:27:14;92012.09;;;5.08;100.00
10202;BME280;5143;42.584;23.164;2023-04-16T01:29:41;92008.56;;;4.93;100.00
10202;BME280;5143;42.584;23.164;2023-04-16T01:32:08;92007.81;;;4.92;100.00
10202;BME280;5143;42.584;23.164;2023-04-16T01:34:35;92002.59;;;4.89;100.00
10202;BME280;5143;42.584;23.164;2023-04-16T01:37:02;92001.66;;;4.92;100.00
10202;BME280;5143;42.584;23.164;2023-04-16T01:39:30;92000.31;;;4.87;100.00
10202;BME280;5143;42.584;23.164;2023-04-16T01:41:57;91988.53;;;4.75;100.00
10202;BME280;5143;42.584;23.164;2023-04-16T01:44:24;91997.28;;;4.70;100.00
10202;BME280;5143;42.584;23.164;2023-04-16T01:46:51;91992.63;;;4.71;100.00
10202;BME280;5143;42.584;23.164;2023-04-16T01:49:18;91982.84;;;4.73;100.00
10202;BME280;5143;42.584;23.164;2023-04-16T01:51:45;91984.78;;;4.73;100.00
10202;BME280;5143;42.584;23.164;2023-04-16T01:54:12;91989.91;;;4.71;100.00
10202;BME280;5143;42.584;23.164;2023-04-16T01:56:40;91987.38;;;4.67;100.00
10202;BME280;5143;42.584;23.164;2023-04-16T01:59:07;91976.75;;;4.64;100.00
10202;BME280;5143;42.584;23.164;2023-04-16T02:01:33;91978.84;;;4.60;100.00
10202;BME280;5143;42.584;23.164;2023-04-16T02:04:00;91985.47;;;4.59;100.00
10202;BME280;5143;42.584;23.164;2023-04-16T02:06:27;91985.47;;;4.59;100.00
10202;BME280;5143;42.584;23.164;2023-04-16T02:08:55;91981.41;;;4.63;100.00
10202;BME280;5143;42.584;23.164;2023-04-16T02:11:22;91980.28;;;4.70;100.00
10202;BME280;5143;42.584;23.164;2023-04-16T02:13:51;91974.72;;;4.73;100.00
10202;BME280;5143;42.584;23.164;2023-04-16T02:16:17;91982.69;;;4.77;100.00
10202;BME280;5143;42.584;23.164;2023-04-16T02:18:44;91978.88;;;4.84;100.00
10202;BME280;5143;42.584;23.164;2023-04-16T02:21:11;91980.97;;;4.89;100.00
10202;BME280;5143;42.584;23.164;2023-04-16T02:23:38;91984.38;;;4.89;100.00
10202;BME280;5143;42.584;23.164;2023-04-16T02:26:05;91972.22;;;4.94;100.00
10202;BME280;5143;42.584;23.164;2023-04-16T02:28:32;91984.50;;;4.95;100.00
10202;BME280;5143;42.584;23.164;2023-04-16T02:31:00;91981.34;;;4.96;100.00
10202;BME280;5143;42.584;23.164;2023-04-16T02:33:27;91984.06;;;4.96;100.00
10202;BME280;5143;42.584;23.164;2023-04-16T02:35:56;91983.19;;;4.90;100.00
10202;BME280;5143;42.584;23.164;2023-04-16T02:38:23;91983.34;;;4.87;100.00
10202;BME280;5143;42.584;23.164;2023-04-16T02:40:50;91978.25;;;4.89;100.00
10202;BME280;5143;42.584;23.164;2023-04-16T02:43:17;91984.81;;;4.97;100.00
10202;BME280;5143;42.584;23.164;2023-04-16T02:45:44;91985.53;;;4.97;100.00
10202;BME280;5143;42.584;23.164;2023-04-16T02:48:12;91981.19;;;5.00;100.00
10202;BME280;5143;42.584;23.164;2023-04-16T02:50:39;91976.50;;;5.00;100.00
10202;BME280;5143;42.584;23.164;2023-04-16T02:53:05;91982.22;;;5.02;100.00
10202;BME280;5143;42.584;23.164;2023-04-16T02:55:32;91983.06;;;5.08;100.00
10202;BME280;5143;42.584;23.164;2023-04-16T02:57:59;91990.78;;;5.24;100.00
10202;BME280;5143;42.584;23.164;2023-04-16T03:00:26;91979.19;;;5.24;100.00
10202;BME280;5143;42.584;23.164;2023-04-16T03:02:53;91980.22;;;5.26;100.00
10202;BME280;5143;42.584;23.164;2023-04-16T03:05:22;91990.41;;;5.31;100.00
10202;BME280;5143;42.584;23.164;2023-04-16T03:07:48;91981.09;;;5.32;100.00
10202;BME280;5143;42.584;23.164;2023-04-16T03:10:20;91987.34;;;5.38;100.00
10202;BME280;5143;42.584;23.164;2023-04-16T03:12:47;91990.03;;;5.38;100.00
10202;BME280;5143;42.584;23.164;2023-04-16T03:15:14;91974.56;;;5.39;100.00
10202;BME280;5143;42.584;23.164;2023-04-16T03:17:41;91990.84;;;5.54;100.00
10202;BME280;5143;42.584;23.164;2023-04-16T03:20:08;91984.50;;;5.57;100.00
10202;BME280;5143;42.584;23.164;2023-04-16T03:22:37;91992.88;;;5.59;100.00
10202;BME280;5143;42.584;23.164;2023-04-16T03:25:04;91988.13;;;5.54;100.00
10202;BME280;5143;42.584;23.164;2023-04-16T03:27:31;91989.53;;;5.49;100.00
10202;BME280;5143;42.584;23.164;2023-04-16T03:29:58;91990.63;;;5.43;100.00
10202;BME280;5143;42.584;23.164;2023-04-16T03:32:25;91990.41;;;5.31;100.00
10202;BME280;5143;42.584;23.164;2023-04-16T03:34:53;91996.97;;;5.40;100.00
10202;BME280;5143;42.584;23.164;2023-04-16T03:37:20;91986.13;;;5.40;100.00
10202;BME280;5143;42.584;23.164;2023-04-16T03:39:48;92002.84;;;5.53;100.00
10202;BME280;5143;42.584;23.164;2023-04-16T03:42:16;92004.72;;;5.47;100.00
10202;BME280;5143;42.584;23.164;2023-04-16T03:44:43;92012.28;;;5.43;100.00
10202;BME280;5143;42.584;23.164;2023-04-16T03:47:10;91999.13;;;5.35;100.00
10202;BME280;5143;42.584;23.164;2023-04-16T03:49:37;92000.75;;;5.33;100.00
10202;BME280;5143;42.584;23.164;2023-04-16T03:52:04;92006.16;;;5.33;100.00
10202;BME280;5143;42.584;23.164;2023-04-16T03:54:31;91999.56;;;5.34;100.00
10202;BME280;5143;42.584;23.164;2023-04-16T03:56:59;92006.94;;;5.33;100.00
10202;BME280;5143;42.584;23.164;2023-04-16T03:59:26;92004.53;;;5.35;100.00
10202;BME280;5143;42.584;23.164;2023-04-16T04:01:53;92010.31;;;5.43;100.00
10202;BME280;5143;42.584;23.164;2023-04-16T04:04:20;92008.38;;;5.44;100.00
10202;BME280;5143;42.584;23.164;2023-04-16T04:06:48;92003.50;;;5.48;100.00
10202;BME280;5143;42.584;23.164;2023-04-16T04:09:15;92015.47;;;5.56;100.00
10202;BME280;5143;42.584;23.164;2023-04-16T04:11:42;92015.41;;;5.65;100.00
10202;BME280;5143;42.584;23.164;2023-04-16T04:14:10;92012.16;;;5.75;100.00
10202;BME280;5143;42.584;23.164;2023-04-16T04:16:37;92012.63;;;5.74;100.00
10202;BME280;5143;42.584;23.164;2023-04-16T04:19:04;92012.91;;;5.76;100.00
10202;BME280;5143;42.584;23.164;2023-04-16T04:21:30;92014.78;;;5.84;100.00
10202;BME280;5143;42.584;23.164;2023-04-16T04:23:57;92017.03;;;5.86;100.00
10202;BME280;5143;42.584;23.164;2023-04-16T04:26:24;92025.44;;;5.88;100.00
10202;BME280;5143;42.584;23.164;2023-04-16T04:28:51;92025.84;;;5.96;100.00
10202;BME280;5143;42.584;23.164;2023-04-16T04:31:20;92026.97;;;6.04;100.00
10202;BME280;5143;42.584;23.164;2023-04-16T04:33:46;92019.28;;;6.02;100.00
10202;BME280;5143;42.584;23.164;2023-04-16T04:36:14;92021.16;;;5.96;100.00
10202;BME280;5143;42.584;23.164;2023-04-16T04:38:41;92023.59;;;5.94;100.00
10202;BME280;5143;42.584;23.164;2023-04-16T04:41:07;92013.97;;;5.93;100.00
10202;BME280;5143;42.584;23.164;2023-04-16T04:43:34;92016.97;;;6.10;100.00
10202;BME280;5143;42.584;23.164;2023-04-16T04:46:01;92018.19;;;6.23;100.00
10202;BME280;5143;42.584;23.164;2023-04-16T04:48:29;92021.16;;;6.40;100.00
10202;BME280;5143;42.584;23.164;2023-04-16T04:50:56;92031.13;;;6.48;100.00
10202;BME280;5143;42.584;23.164;2023-04-16T04:53:23;92034.59;;;6.64;100.00
10202;BME280;5143;42.584;23.164;2023-04-16T04:55:50;92017.22;;;6.56;100.00
10202;BME280;5143;42.584;23.164;2023-04-16T04:58:17;92028.66;;;6.80;100.00
10202;BME280;5143;42.584;23.164;2023-04-16T05:00:44;92034.50;;;6.93;100.00
10202;BME280;5143;42.584;23.164;2023-04-16T05:03:11;92030.97;;;6.87;100.00
10202;BME280;5143;42.584;23.164;2023-04-16T05:05:39;92029.56;;;6.91;100.00
10202;BME280;5143;42.584;23.164;2023-04-16T05:08:06;92031.53;;;6.91;100.00
10202;BME280;5143;42.584;23.164;2023-04-16T05:10:34;92039.72;;;7.11;100.00
10202;BME280;5143;42.584;23.164;2023-04-16T05:13:01;92034.16;;;7.40;100.00
10202;BME280;5143;42.584;23.164;2023-04-16T05:15:28;92029.16;;;7.33;100.00
10202;BME280;5143;42.584;23.164;2023-04-16T05:17:55;92033.56;;;7.51;100.00
10202;BME280;5143;42.584;23.164;2023-04-16T05:20:22;92029.50;;;7.87;100.00
10202;BME280;5143;42.584;23.164;2023-04-16T05:22:50;92040.47;;;8.18;100.00
10202;BME280;5143;42.584;23.164;2023-04-16T05:25:20;92041.28;;;8.50;100.00
10202;BME280;5143;42.584;23.164;2023-04-16T05:27:46;92033.75;;;8.65;100.00
10202;BME280;5143;42.584;23.164;2023-04-16T05:30:13;92042.03;;;8.81;100.00
10202;BME280;5143;42.584;23.164;2023-04-16T05:32:40;92043.59;;;8.94;100.00
10202;BME280;5143;42.584;23.164;2023-04-16T05:35:07;92052.84;;;9.07;100.00
10202;BME280;5143;42.584;23.164;2023-04-16T05:37:34;92046.50;;;9.21;100.00
10202;BME280;5143;42.584;23.164;2023-04-16T05:40:03;92053.19;;;9.26;100.00
10202;BME280;5143;42.584;23.164;2023-04-16T05:42:30;92049.09;;;9.41;100.00
10202;BME280;5143;42.584;23.164;2023-04-16T05:44:57;92046.00;;;9.71;100.00
10202;BME280;5143;42.584;23.164;2023-04-16T05:47:23;92051.78;;;9.95;100.00
10202;BME280;5143;42.584;23.164;2023-04-16T05:49:50;92055.81;;;10.05;100.00
10202;BME280;5143;42.584;23.164;2023-04-16T05:52:17;92055.13;;;10.16;100.00
10202;BME280;5143;42.584;23.164;2023-04-16T05:54:44;92051.69;;;10.43;100.00
10202;BME280;5143;42.584;23.164;2023-04-16T05:57:13;92055.44;;;10.73;97.96
10202;BME280;5143;42.584;23.164;2023-04-16T05:59:40;92049.00;;;10.93;97.64
10202;BME280;5143;42.584;23.164;2023-04-16T06:02:11;92042.28;;;11.10;92.36
10202;BME280;5143;42.584;23.164;2023-04-16T06:04:37;92058.88;;;11.40;89.04
10202;BME280;5143;42.584;23.164;2023-04-16T06:07:05;92047.16;;;11.62;84.54
10202;BME280;5143;42.584;23.164;2023-04-16T06:09:31;92053.63;;;11.75;83.97
10202;BME280;5143;42.584;23.164;2023-04-16T06:11:58;92053.38;;;12.25;78.56
10202;BME280;5143;42.584;23.164;2023-04-16T06:14:27;92049.34;;;12.37;77.50
10202;BME280;5143;42.584;23.164;2023-04-16T06:16:53;92058.41;;;12.62;72.72
10202;BME280;5143;42.584;23.164;2023-04-16T06:19:21;92048.59;;;12.78;71.93
10202;BME280;5143;42.584;23.164;2023-04-16T06:21:47;92054.38;;;13.04;69.97
10202;BME280;5143;42.584;23.164;2023-04-16T06:24:14;92055.31;;;13.42;68.85
10202;BME280;5143;42.584;23.164;2023-04-16T06:26:42;92055.03;;;13.70;67.78
10202;BME280;5143;42.584;23.164;2023-04-16T06:29:10;92052.38;;;14.07;65.39
10202;BME280;5143;42.584;23.164;2023-04-16T06:31:38;92055.72;;;14.18;62.67
10202;BME280;5143;42.584;23.164;2023-04-16T06:34:06;92055.31;;;14.70;61.84
10202;BME280;5143;42.584;23.164;2023-04-16T06:36:33;92060.19;;;15.28;59.28
10202;BME280;5143;42.584;23.164;2023-04-16T06:39:02;92049.97;;;15.73;57.08
10202;BME280;5143;42.584;23.164;2023-04-16T06:41:29;92051.41;;;16.40;53.58
10202;BME280;5143;42.584;23.164;2023-04-16T06:43:56;92045.09;;;17.13;52.04
10202;BME280;5143;42.584;23.164;2023-04-16T06:46:23;92043.94;;;17.29;50.22
10202;BME280;5143;42.584;23.164;2023-04-16T06:48:52;92040.03;;;18.14;48.63
10202;BME280;5143;42.584;23.164;2023-04-16T06:51:19;92042.66;;;18.56;47.30
10202;BME280;5143;42.584;23.164;2023-04-16T06:53:46;92051.34;;;18.32;47.37
10202;BME280;5143;42.584;23.164;2023-04-16T06:56:12;92047.25;;;18.25;46.26
10202;BME280;5143;42.584;23.164;2023-04-16T06:58:39;92047.72;;;17.59;46.82
10202;BME280;5143;42.584;23.164;2023-04-16T07:01:06;92042.19;;;17.39;46.92
10202;BME280;5143;42.584;23.164;2023-04-16T07:03:34;92045.13;;;17.54;45.98
10202;BME280;5143;42.584;23.164;2023-04-16T07:06:03;92055.22;;;18.28;45.44
10202;BME280;5143;42.584;23.164;2023-04-16T07:08:30;92056.94;;;18.75;43.45
10202;BME280;5143;42.584;23.164;2023-04-16T07:10:56;92047.63;;;18.57;41.61
10202;BME280;5143;42.584;23.164;2023-04-16T07:13:24;92061.00;;;19.48;41.00
10202;BME280;5143;42.584;23.164;2023-04-16T07:15:51;92061.75;;;19.48;40.91
10202;BME280;5143;42.584;23.164;2023-04-16T07:18:18;92057.69;;;20.25;39.29
10202;BME280;5143;42.584;23.164;2023-04-16T07:20:45;92060.69;;;20.74;39.73
10202;BME280;5143;42.584;23.164;2023-04-16T07:23:14;92054.31;;;21.04;36.49
10202;BME280;5143;42.584;23.164;2023-04-16T07:25:41;92069.09;;;21.46;35.82
10202;BME280;5143;42.584;23.164;2023-04-16T07:28:08;92058.56;;;21.37;36.20
10202;BME280;5143;42.584;23.164;2023-04-16T07:30:35;92060.88;;;21.24;35.92
10202;BME280;5143;42.584;23.164;2023-04-16T07:33:02;92067.59;;;22.27;35.39
10202;BME280;5143;42.584;23.164;2023-04-16T07:35:30;92061.06;;;22.07;34.82
10202;BME280;5143;42.584;23.164;2023-04-16T07:37:57;92066.25;;;21.54;34.48
10202;BME280;5143;42.584;23.164;2023-04-16T07:40:25;92061.94;;;21.93;35.02
10202;BME280;5143;42.584;23.164;2023-04-16T07:42:53;92063.84;;;22.07;35.26
10202;BME280;5143;42.584;23.164;2023-04-16T07:45:21;92074.00;;;23.06;33.32
10202;BME280;5143;42.584;23.164;2023-04-16T07:47:48;92070.66;;;22.90;33.91
10202;BME280;5143;42.584;23.164;2023-04-16T07:50:15;92056.53;;;22.37;33.78
10202;BME280;5143;42.584;23.164;2023-04-16T07:52:43;92052.81;;;21.03;34.94
10202;BME280;5143;42.584;23.164;2023-04-16T07:55:10;92049.78;;;19.91;36.73
10202;BME280;5143;42.584;23.164;2023-04-16T07:57:39;92050.94;;;20.66;36.19
10202;BME280;5143;42.584;23.164;2023-04-16T08:00:07;92046.13;;;19.07;36.21
10202;BME280;5143;42.584;23.164;2023-04-16T08:02:34;92048.81;;;19.51;36.21
10202;BME280;5143;42.584;23.164;2023-04-16T08:05:01;92047.41;;;18.99;36.85
10202;BME280;5143;42.584;23.164;2023-04-16T08:07:28;92049.53;;;18.70;37.45
10202;BME280;5143;42.584;23.164;2023-04-16T08:09:55;92047.53;;;18.42;37.84
10202;BME280;5143;42.584;23.164;2023-04-16T08:12:22;92044.00;;;18.34;37.70
10202;BME280;5143;42.584;23.164;2023-04-16T08:14:50;92025.47;;;18.14;37.84
10202;BME280;5143;42.584;23.164;2023-04-16T08:17:17;92043.53;;;18.15;39.56
10202;BME280;5143;42.584;23.164;2023-04-16T08:19:44;92034.19;;;17.07;40.24
10202;BME280;5143;42.584;23.164;2023-04-16T08:22:12;92028.78;;;16.68;41.27
10202;BME280;5143;42.584;23.164;2023-04-16T08:24:39;92031.53;;;16.81;40.92
10202;BME280;5143;42.584;23.164;2023-04-16T08:27:05;92028.31;;;16.90;40.72
10202;BME280;5143;42.584;23.164;2023-04-16T08:29:32;92027.31;;;17.00;41.19
10202;BME280;5143;42.584;23.164;2023-04-16T08:32:01;92029.34;;;17.21;40.60
10202;BME280;5143;42.584;23.164;2023-04-16T08:34:28;92032.72;;;17.27;40.59
10202;BME280;5143;42.584;23.164;2023-04-16T08:36:55;92032.28;;;17.23;41.30
10202;BME280;5143;42.584;23.164;2023-04-16T08:39:22;92028.28;;;17.65;41.24
10202;BME280;5143;42.584;23.164;2023-04-16T08:41:48;92024.53;;;17.83;40.38
10202;BME280;5143;42.584;23.164;2023-04-16T08:44:21;92021.66;;;17.47;40.63
10202;BME280;5143;42.584;23.164;2023-04-16T08:46:52;92009.63;;;16.96;41.94
10202;BME280;5143;42.584;23.164;2023-04-16T08:49:23;92007.88;;;17.27;42.35
10202;BME280;5143;42.584;23.164;2023-04-16T08:51:52;92017.38;;;17.59;42.18
10202;BME280;5143;42.584;23.164;2023-04-16T08:54:37;92018.09;;;17.39;40.97
10202;BME280;5143;42.584;23.164;2023-04-16T08:57:05;92009.50;;;17.22;41.88
10202;BME280;5143;42.584;23.164;2023-04-16T08:59:33;92017.22;;;17.44;43.10
10202;BME280;5143;42.584;23.164;2023-04-16T09:02:00;92012.50;;;17.73;41.46
10202;BME280;5143;42.584;23.164;2023-04-16T09:04:30;92020.06;;;18.01;41.07
10202;BME280;5143;42.584;23.164;2023-04-16T09:06:58;92016.16;;;17.68;41.11
10202;BME280;5143;42.584;23.164;2023-04-16T09:09:25;92016.00;;;17.74;41.21
10202;BME280;5143;42.584;23.164;2023-04-16T09:11:53;92018.94;;;17.96;39.83
10202;BME280;5143;42.584;23.164;2023-04-16T09:14:20;92006.25;;;17.73;40.83
10202;BME280;5143;42.584;23.164;2023-04-16T09:16:48;92023.94;;;18.05;39.64
10202;BME280;5143;42.584;23.164;2023-04-16T09:19:19;92028.97;;;18.14;40.99
10202;BME280;5143;42.584;23.164;2023-04-16T09:21:47;92026.53;;;18.47;39.71
10202;BME280;5143;42.584;23.164;2023-04-16T09:24:13;92028.50;;;18.67;39.49
10202;BME280;5143;42.584;23.164;2023-04-16T09:26:41;92026.81;;;19.22;39.02
10202;BME280;5143;42.584;23.164;2023-04-16T09:29:08;92024.28;;;19.62;38.11
10202;BME280;5143;42.584;23.164;2023-04-16T09:31:36;92017.78;;;19.37;37.79
10202;BME280;5143;42.584;23.164;2023-04-16T09:34:04;92007.97;;;19.21;37.20
10202;BME280;5143;42.584;23.164;2023-04-16T09:36:32;92009.22;;;18.90;38.76
10202;BME280;5143;42.584;23.164;2023-04-16T09:39:01;92007.69;;;19.47;38.09
10202;BME280;5143;42.584;23.164;2023-04-16T09:41:29;92020.59;;;19.60;37.55
10202;BME280;5143;42.584;23.164;2023-04-16T09:43:57;92007.06;;;20.09;36.68
10202;BME280;5143;42.584;23.164;2023-04-16T09:46:28;92015.41;;;19.33;38.40
10202;BME280;5143;42.584;23.164;2023-04-16T09:48:55;92008.78;;;19.67;37.84
10202;BME280;5143;42.584;23.164;2023-04-16T09:51:22;92005.97;;;20.05;38.98
10202;BME280;5143;42.584;23.164;2023-04-16T09:53:51;91984.28;;;20.48;39.70
10202;BME280;5143;42.584;23.164;2023-04-16T09:56:22;91999.53;;;20.65;38.75
10202;BME280;5143;42.584;23.164;2023-04-16T09:58:49;91997.41;;;20.33;36.55
10202;BME280;5143;42.584;23.164;2023-04-16T10:01:17;92001.56;;;19.56;37.76
10202;BME280;5143;42.584;23.164;2023-04-16T10:03:48;92004.72;;;19.53;37.90
10202;BME280;5143;42.584;23.164;2023-04-16T10:06:17;91985.38;;;18.64;38.27
10202;BME280;5143;42.584;23.164;2023-04-16T10:08:46;91982.81;;;18.30;38.71
10202;BME280;5143;42.584;23.164;2023-04-16T10:11:14;91992.63;;;18.39;38.83
10202;BME280;5143;42.584;23.164;2023-04-16T10:13:42;91990.38;;;18.73;38.74
10202;BME280;5143;42.584;23.164;2023-04-16T10:16:09;91976.97;;;18.92;40.34
10202;BME280;5143;42.584;23.164;2023-04-16T10:18:38;91982.34;;;19.20;39.52
10202;BME280;5143;42.584;23.164;2023-04-16T10:21:05;91977.19;;;19.24;39.85
10202;BME280;5143;42.584;23.164;2023-04-16T10:23:33;91980.69;;;19.17;38.14
10202;BME280;5143;42.584;23.164;2023-04-16T10:26:01;91978.34;;;19.44;37.87
10202;BME280;5143;42.584;23.164;2023-04-16T10:28:28;91981.44;;;19.78;37.87
10202;BME280;5143;42.584;23.164;2023-04-16T10:30:57;91973.88;;;19.79;37.95
10202;BME280;5143;42.584;23.164;2023-04-16T10:33:26;91969.44;;;19.91;37.86
10202;BME280;5143;42.584;23.164;2023-04-16T10:36:07;91968.88;;;19.92;38.42
10202;BME280;5143;42.584;23.164;2023-04-16T10:38:38;91958.09;;;20.12;37.98
10202;BME280;5143;42.584;23.164;2023-04-16T10:41:06;91964.00;;;20.31;37.48
10202;BME280;5143;42.584;23.164;2023-04-16T10:43:39;91968.75;;;20.45;36.31
10202;BME280;5143;42.584;23.164;2023-04-16T10:46:21;91952.44;;;20.49;36.33
10202;BME280;5143;42.584;23.164;2023-04-16T10:48:51;91969.50;;;20.38;35.58
10202;BME280;5143;42.584;23.164;2023-04-16T10:51:27;91970.22;;;20.46;35.68
10202;BME280;5143;42.584;23.164;2023-04-16T10:53:56;91966.38;;;20.34;36.47
10202;BME280;5143;42.584;23.164;2023-04-16T10:56:24;91959.78;;;20.07;36.42
10202;BME280;5143;42.584;23.164;2023-04-16T10:58:52;91948.53;;;20.05;38.30
10202;BME280;5143;42.584;23.164;2023-04-16T11:01:29;91935.59;;;20.08;39.51
10202;BME280;5143;42.584;23.164;2023-04-16T11:03:58;91950.00;;;20.06;37.05
10202;BME280;5143;42.584;23.164;2023-04-16T11:06:27;91946.56;;;19.22;37.59
10202;BME280;5143;42.584;23.164;2023-04-16T11:08:54;91945.09;;;19.29;37.78
10202;BME280;5143;42.584;23.164;2023-04-16T11:11:21;91943.97;;;19.09;39.04
10202;BME280;5143;42.584;23.164;2023-04-16T11:13:48;91941.75;;;19.00;39.00
10202;BME280;5143;42.584;23.164;2023-04-16T11:16:20;91939.91;;;18.95;39.16
10202;BME280;5143;42.584;23.164;2023-04-16T11:18:48;91938.94;;;18.77;38.46
10202;BME280;5143;42.584;23.164;2023-04-16T11:21:15;91947.44;;;18.79;39.56
10202;BME280;5143;42.584;23.164;2023-04-16T11:23:46;91937.88;;;18.96;39.21
10202;BME280;5143;42.584;23.164;2023-04-16T11:26:24;91931.97;;;18.84;39.91
10202;BME280;5143;42.584;23.164;2023-04-16T11:28:52;91930.50;;;18.98;39.62
10202;BME280;5143;42.584;23.164;2023-04-16T11:31:20;91934.19;;;19.23;39.64
10202;BME280;5143;42.584;23.164;2023-04-16T11:33:49;91924.97;;;18.83;39.56
10202;BME280;5143;42.584;23.164;2023-04-16T11:36:16;91918.69;;;18.75;38.72
10202;BME280;5143;42.584;23.164;2023-04-16T11:38:43;91921.41;;;18.60;39.55
10202;BME280;5143;42.584;23.164;2023-04-16T11:41:10;91923.63;;;18.61;39.19
10202;BME280;5143;42.584;23.164;2023-04-16T11:43:37;91922.38;;;18.85;38.48
10202;BME280;5143;42.584;23.164;2023-04-16T11:46:05;91921.47;;;18.98;39.14
10202;BME280;5143;42.584;23.164;2023-04-16T11:48:52;91915.19;;;19.12;39.86
10202;BME280;5143;42.584;23.164;2023-04-16T11:51:19;91916.34;;;19.47;38.81
10202;BME280;5143;42.584;23.164;2023-04-16T11:53:51;91896.41;;;19.11;39.17
10202;BME280;5143;42.584;23.164;2023-04-16T11:56:25;91909.88;;;19.45;39.31
10202;BME280;5143;42.584;23.164;2023-04-16T11:59:06;91914.66;;;19.36;39.67
10202;BME280;5143;42.584;23.164;2023-04-16T12:01:36;91912.81;;;19.47;39.16
10202;BME280;5143;42.584;23.164;2023-04-16T12:04:05;91915.41;;;19.52;38.85
10202;BME280;5143;42.584;23.164;2023-04-16T12:06:33;91909.88;;;19.52;39.06
10202;BME280;5143;42.584;23.164;2023-04-16T12:09:23;91909.84;;;19.37;38.28
10202;BME280;5143;42.584;23.164;2023-04-16T12:11:50;91906.69;;;19.71;38.56
10202;BME280;5143;42.584;23.164;2023-04-16T12:14:17;91897.63;;;19.85;39.43
10202;BME280;5143;42.584;23.164;2023-04-16T12:16:44;91903.03;;;19.61;39.36
10202;BME280;5143;42.584;23.164;2023-04-16T12:19:13;91891.75;;;19.28;40.30
10202;BME280;5143;42.584;23.164;2023-04-16T12:21:41;91889.19;;;19.61;40.27
10202;BME280;5143;42.584;23.164;2023-04-16T12:24:09;91896.19;;;19.31;38.95
10202;BME280;5143;42.584;23.164;2023-04-16T12:26:40;91893.16;;;18.46;39.27
10202;BME280;5143;42.584;23.164;2023-04-16T12:29:28;91888.81;;;18.07;40.98
10202;BME280;5143;42.584;23.164;2023-04-16T12:31:56;91890.28;;;17.65;41.56
10202;BME280;5143;42.584;23.164;2023-04-16T12:34:24;91887.75;;;17.46;42.29
10202;BME280;5143;42.584;23.164;2023-04-16T12:37:04;91888.06;;;17.15;43.29
10202;BME280;5143;42.584;23.164;2023-04-16T12:39:32;91910.16;;;16.73;47.09
10202;BME280;5143;42.584;23.164;2023-04-16T12:41:58;91904.97;;;15.68;50.97
10202;BME280;5143;42.584;23.164;2023-04-16T12:44:26;91929.88;;;14.60;70.88
10202;BME280;5143;42.584;23.164;2023-04-16T12:46:53;91947.16;;;13.43;100.00
10202;BME280;5143;42.584;23.164;2023-04-16T12:49:21;91924.84;;;12.14;100.00
10202;BME280;5143;42.584;23.164;2023-04-16T12:51:49;91930.38;;;11.57;100.00
10202;BME280;5143;42.584;23.164;2023-04-16T12:54:16;91910.59;;;11.40;100.00
10202;BME280;5143;42.584;23.164;2023-04-16T12:56:43;91901.91;;;11.36;100.00
10202;BME280;5143;42.584;23.164;2023-04-16T12:59:10;91889.19;;;11.44;100.00
10202;BME280;5143;42.584;23.164;2023-04-16T13:01:36;91893.31;;;11.67;100.00
10202;BME280;5143;42.584;23.164;2023-04-16T13:04:03;91886.16;;;11.99;100.00